sensor_id;sensor_type;location;lat;lon;timestamp;temperature;humidity
17859;DHT22;35426;30.698;104.050;2023-07-31T00:00:40;35.40;99.90
17859;DHT22;35426;30.698;104.050;2023-07-31T00:03:14;35.60;99.90
17859;DHT22;35426;30.698;104.050;2023-07-31T00:05:47;35.30;99.90
17859;DHT22;35426;30.698;104.050;2023-07-31T00:08:23;35.20;99.90
17859;DHT22;35426;30.698;104.050;2023-07-31T00:10:56;35.40;99.90
17859;DHT22;35426;30.698;104.050;2023-07-31T00:13:30;35.70;99.90
17859;DHT22;35426;30.698;104.050;2023-07-31T00:16:05;36.10;99.90
17859;DHT22;35426;30.698;104.050;2023-07-31T00:18:39;38.10;99.90
17859;DHT22;35426;30.698;104.050;2023-07-31T00:21:12;37.60;99.90
17859;DHT22;35426;30.698;104.050;2023-07-31T00:23:48;36.60;99.90
17859;DHT22;35426;30.698;104.050;2023-07-31T00:26:21;38.50;99.90
17859;DHT22;35426;30.698;104.050;2023-07-31T00:28:55;40.70;99.90
17859;DHT22;35426;30.698;104.050;2023-07-31T00:31:29;39.60;99.90
17859;DHT22;35426;30.698;104.050;2023-07-31T00:34:04;38.70;99.90
17859;DHT22;35426;30.698;104.050;2023-07-31T00:36:38;38.10;99.90
17859;DHT22;35426;30.698;104.050;2023-07-31T00:39:12;38.50;99.90
17859;DHT22;35426;30.698;104.050;2023-07-31T00:41:46;38.50;99.90
17859;DHT22;35426;30.698;104.050;2023-07-31T00:44:19;38.60;99.90
17859;DHT22;35426;30.698;104.050;2023-07-31T00:46:53;37.30;99.90
17859;DHT22;35426;30.698;104.050;2023-07-31T00:49:27;36.80;99.90
17859;DHT22;35426;30.698;104.050;2023-07-31T00:52:01;36.60;99.90
17859;DHT22;35426;30.698;104.050;2023-07-31T00:54:37;36.30;99.90
17859;DHT22;35426;30.698;104.050;2023-07-31T00:57:11;36.00;99.90
17859;DHT22;35426;30.698;104.050;2023-07-31T00:59:44;35.70;99.90
17859;DHT22;35426;30.698;104.050;2023-07-31T01:02:19;35.50;99.90
17859;DHT22;35426;30.698;104.050;2023-07-31T01:04:54;35.70;99.90
17859;DHT22;35426;30.698;104.050;2023-07-31T01:07:38;35.50;99.90
17859;DHT22;35426;30.698;104.050;2023-07-31T01:10:18;35.50;99.90
17859;DHT22;35426;30.698;104.050;2023-07-31T01:12:54;34.90;99.90
17859;DHT22;35426;30.698;104.050;2023-07-31T01:15:30;34.70;99.90
17859;DHT22;35426;30.698;104.050;2023-07-31T01:18:04;34.50;99.90
17859;DHT22;35426;30.698;104.050;2023-07-31T01:20:38;34.70;99.90
17859;DHT22;35426;30.698;104.050;2023-07-31T01:23:33;34.60;99.90
17859;DHT22;35426;30.698;104.050;2023-07-31T01:26:13;34.50;99.90
17859;DHT22;35426;30.698;104.050;2023-07-31T01:28:55;34.40;99.90
17859;DHT22;35426;30.698;104.050;2023-07-31T01:31:32;34.30;99.90
17859;DHT22;35426;30.698;104.050;2023-07-31T01:34:07;34.40;99.90
17859;DHT22;35426;30.698;104.050;2023-07-31T01:36:42;34.30;99.90
17859;DHT22;35426;30.698;104.050;2023-07-31T01:39:15;34.10;99.90
17859;DHT22;35426;30.698;104.050;2023-07-31T01:41:51;33.90;99.90
17859;DHT22;35426;30.698;104.050;2023-07-31T01:44:25;33.80;99.90
17859;DHT22;35426;30.698;104.050;2023-07-31T01:46:58;34.00;99.90
17859;DHT22;35426;30.698;104.050;2023-07-31T01:49:31;33.80;99.90
17859;DHT22;35426;30.698;104.050;2023-07-31T01:52:05;33.80;99.90
17859;DHT22;35426;30.698;104.050;2023-07-31T01:54:39;34.00;99.90
17859;DHT22;35426;30.698;104.050;2023-07-31T01:57:14;33.80;99.90
17859;DHT22;35426;30.698;104.050;2023-07-31T01:59:47;34.00;99.90
17859;DHT22;35426;30.698;104.050;2023-07-31T02:02:22;33.70;99.90
17859;DHT22;35426;30.698;104.050;2023-07-31T02:04:56;33.80;99.90
17859;DHT22;35426;30.698;104.050;2023-07-31T02:07:30;33.70;99.90
17859;DHT22;35426;30.698;104.050;2023-07-31T02:10:03;34.00;99.90
17859;DHT22;35426;30.698;104.050;2023-07-31T02:12:38;34.00;99.90
17859;DHT22;35426;30.698;104.050;2023-07-31T02:15:13;34.10;99.90
17859;DHT22;35426;30.698;104.050;2023-07-31T02:17:46;33.90;99.90
17859;DHT22;35426;30.698;104.050;2023-07-31T02:20:20;34.30;99.90
17859;DHT22;35426;30.698;104.050;2023-07-31T02:22:54;34.50;99.90
17859;DHT22;35426;30.698;104.050;2023-07-31T02:25:45;34.90;99.90
17859;DHT22;35426;30.698;104.050;2023-07-31T02:28:22;35.50;99.90
17859;DHT22;35426;30.698;104.050;2023-07-31T02:30:55;36.80;99.90
17859;DHT22;35426;30.698;104.050;2023-07-31T02:33:30;37.40;99.90
17859;DHT22;35426;30.698;104.050;2023-07-31T02:36:04;37.90;99.90
17859;DHT22;35426;30.698;104.050;2023-07-31T02:38:38;38.40;99.90
17859;DHT22;35426;30.698;104.050;2023-07-31T02:41:12;37.40;99.90
17859;DHT22;35426;30.698;104.050;2023-07-31T02:43:47;37.60;99.90
17859;DHT22;35426;30.698;104.050;2023-07-31T02:46:21;37.70;99.90
17859;DHT22;35426;30.698;104.050;2023-07-31T02:48:56;37.30;99.90
17859;DHT22;35426;30.698;104.050;2023-07-31T02:51:30;36.90;99.90
17859;DHT22;35426;30.698;104.050;2023-07-31T02:54:04;36.80;99.90
17859;DHT22;35426;30.698;104.050;2023-07-31T02:56:38;36.90;99.90
17859;DHT22;35426;30.698;104.050;2023-07-31T02:59:31;36.90;99.90
17859;DHT22;35426;30.698;104.050;2023-07-31T03:02:05;36.30;99.90
17859;DHT22;35426;30.698;104.050;2023-07-31T03:04:39;36.50;99.90
17859;DHT22;35426;30.698;104.050;2023-07-31T03:07:13;36.60;99.90
17859;DHT22;35426;30.698;104.050;2023-07-31T03:09:48;36.70;99.90
17859;DHT22;35426;30.698;104.050;2023-07-31T03:12:22;37.20;99.90
17859;DHT22;35426;30.698;104.050;2023-07-31T03:15:13;37.30;99.90
17859;DHT22;35426;30.698;104.050;2023-07-31T03:17:47;37.50;99.90
17859;DHT22;35426;30.698;104.050;2023-07-31T03:20:20;37.80;99.90
17859;DHT22;35426;30.698;104.050;2023-07-31T03:22:54;37.30;99.90
17859;DHT22;35426;30.698;104.050;2023-07-31T03:25:28;37.40;99.90
17859;DHT22;35426;30.698;104.050;2023-07-31T03:28:01;38.20;99.90
17859;DHT22;35426;30.698;104.050;2023-07-31T03:30:53;37.80;99.90
17859;DHT22;35426;30.698;104.050;2023-07-31T03:33:27;38.10;99.90
17859;DHT22;35426;30.698;104.050;2023-07-31T03:36:17;38.70;99.90
17859;DHT22;35426;30.698;104.050;2023-07-31T03:38:51;38.50;99.90
17859;DHT22;35426;30.698;104.050;2023-07-31T03:41:25;38.80;99.90
17859;DHT22;35426;30.698;104.050;2023-07-31T03:43:58;39.10;99.90
17859;DHT22;35426;30.698;104.050;2023-07-31T03:46:35;38.70;99.90
17859;DHT22;35426;30.698;104.050;2023-07-31T03:49:09;38.70;99.90
17859;DHT22;35426;30.698;104.050;2023-07-31T03:51:43;38.10;99.90
17859;DHT22;35426;30.698;104.050;2023-07-31T03:54:33;38.50;99.90
17859;DHT22;35426;30.698;104.050;2023-07-31T03:57:07;38.70;99.90
17859;DHT22;35426;30.698;104.050;2023-07-31T03:59:41;39.00;99.90
17859;DHT22;35426;30.698;104.050;2023-07-31T04:02:17;38.30;99.90
17859;DHT22;35426;30.698;104.050;2023-07-31T04:04:51;38.70;99.90
17859;DHT22;35426;30.698;104.050;2023-07-31T04:07:25;39.00;99.90
17859;DHT22;35426;30.698;104.050;2023-07-31T04:09:59;39.10;99.90
17859;DHT22;35426;30.698;104.050;2023-07-31T04:12:32;39.10;99.90
17859;DHT22;35426;30.698;104.050;2023-07-31T04:15:06;38.60;99.90
17859;DHT22;35426;30.698;104.050;2023-07-31T04:17:42;38.40;99.90
17859;DHT22;35426;30.698;104.050;2023-07-31T04:20:16;38.70;99.90
17859;DHT22;35426;30.698;104.050;2023-07-31T04:22:49;38.70;99.90
17859;DHT22;35426;30.698;104.050;2023-07-31T04:25:22;39.10;99.90
17859;DHT22;35426;30.698;104.050;2023-07-31T04:27:55;39.00;99.90
17859;DHT22;35426;30.698;104.050;2023-07-31T04:30:28;39.20;99.90
17859;DHT22;35426;30.698;104.050;2023-07-31T04:33:05;38.70;99.90
17859;DHT22;35426;30.698;104.050;2023-07-31T04:35:39;39.50;99.90
17859;DHT22;35426;30.698;104.050;2023-07-31T04:38:12;39.60;99.90
17859;DHT22;35426;30.698;104.050;2023-07-31T04:40:46;39.90;99.90
17859;DHT22;35426;30.698;104.050;2023-07-31T04:43:20;39.20;99.90
17859;DHT22;35426;30.698;104.050;2023-07-31T04:45:54;38.60;99.90
17859;DHT22;35426;30.698;104.050;2023-07-31T04:48:30;38.30;99.90
17859;DHT22;35426;30.698;104.050;2023-07-31T04:51:04;38.50;99.90
17859;DHT22;35426;30.698;104.050;2023-07-31T04:53:37;38.80;99.90
17859;DHT22;35426;30.698;104.050;2023-07-31T04:56:10;38.60;99.90
17859;DHT22;35426;30.698;104.050;2023-07-31T04:58:43;38.10;99.90
17859;DHT22;35426;30.698;104.050;2023-07-31T05:01:17;38.00;99.90
17859;DHT22;35426;30.698;104.050;2023-07-31T05:03:53;37.90;99.90
17859;DHT22;35426;30.698;104.050;2023-07-31T05:06:26;38.00;99.90
17859;DHT22;35426;30.698;104.050;2023-07-31T05:08:59;38.00;99.90
17859;DHT22;35426;30.698;104.050;2023-07-31T05:11:32;37.60;99.90
17859;DHT22;35426;30.698;104.050;2023-07-31T05:14:05;38.10;99.90
17859;DHT22;35426;30.698;104.050;2023-07-31T05:16:38;37.70;99.90
17859;DHT22;35426;30.698;104.050;2023-07-31T05:19:13;37.50;99.90
17859;DHT22;35426;30.698;104.050;2023-07-31T05:21:49;37.60;99.90
17859;DHT22;35426;30.698;104.050;2023-07-31T05:24:22;37.70;99.90
17859;DHT22;35426;30.698;104.050;2023-07-31T05:26:55;37.80;99.90
17859;DHT22;35426;30.698;104.050;2023-07-31T05:29:29;38.20;99.90
17859;DHT22;35426;30.698;104.050;2023-07-31T05:32:05;37.90;99.90
17859;DHT22;35426;30.698;104.050;2023-07-31T05:34:41;37.70;99.90
17859;DHT22;35426;30.698;104.050;2023-07-31T05:37:15;38.10;99.90
17859;DHT22;35426;30.698;104.050;2023-07-31T05:40:07;38.50;99.90
17859;DHT22;35426;30.698;104.050;2023-07-31T05:42:40;38.40;99.90
17859;DHT22;35426;30.698;104.050;2023-07-31T05:45:15;38.30;99.90
17859;DHT22;35426;30.698;104.050;2023-07-31T05:47:48;38.30;99.90
17859;DHT22;35426;30.698;104.050;2023-07-31T05:50:23;38.00;99.90
17859;DHT22;35426;30.698;104.050;2023-07-31T05:52:56;37.90;99.90
17859;DHT22;35426;30.698;104.050;2023-07-31T05:55:29;38.00;99.90
17859;DHT22;35426;30.698;104.050;2023-07-31T05:58:02;37.90;99.90
17859;DHT22;35426;30.698;104.050;2023-07-31T06:00:36;37.90;99.90
17859;DHT22;35426;30.698;104.050;2023-07-31T06:03:09;38.00;99.90
17859;DHT22;35426;30.698;104.050;2023-07-31T06:05:44;37.90;99.90
17859;DHT22;35426;30.698;104.050;2023-07-31T06:08:17;37.60;99.90
17859;DHT22;35426;30.698;104.050;2023-07-31T06:10:50;37.30;99.90
17859;DHT22;35426;30.698;104.050;2023-07-31T06:13:23;37.40;99.90
17859;DHT22;35426;30.698;104.050;2023-07-31T06:15:57;37.60;99.90
17859;DHT22;35426;30.698;104.050;2023-07-31T06:18:30;37.80;99.90
17859;DHT22;35426;30.698;104.050;2023-07-31T06:21:05;37.70;99.90
17859;DHT22;35426;30.698;104.050;2023-07-31T06:23:38;37.60;99.90
17859;DHT22;35426;30.698;104.050;2023-07-31T06:26:11;37.60;99.90
17859;DHT22;35426;30.698;104.050;2023-07-31T06:28:44;37.60;99.90
17859;DHT22;35426;30.698;104.050;2023-07-31T06:31:17;37.60;99.90
17859;DHT22;35426;30.698;104.050;2023-07-31T06:33:54;37.70;99.90
17859;DHT22;35426;30.698;104.050;2023-07-31T06:36:47;37.90;99.90
17859;DHT22;35426;30.698;104.050;2023-07-31T06:39:20;37.50;99.90
17859;DHT22;35426;30.698;104.050;2023-07-31T06:41:56;37.60;99.90
17859;DHT22;35426;30.698;104.050;2023-07-31T06:44:29;37.80;99.90
17859;DHT22;35426;30.698;104.050;2023-07-31T06:47:20;37.60;99.90
17859;DHT22;35426;30.698;104.050;2023-07-31T06:50:10;37.30;99.90
17859;DHT22;35426;30.698;104.050;2023-07-31T06:52:45;37.80;99.90
17859;DHT22;35426;30.698;104.050;2023-07-31T06:55:20;37.40;99.90
17859;DHT22;35426;30.698;104.050;2023-07-31T06:57:57;37.50;99.90
17859;DHT22;35426;30.698;104.050;2023-07-31T07:00:31;37.40;99.90
17859;DHT22;35426;30.698;104.050;2023-07-31T07:03:06;37.00;99.90
17859;DHT22;35426;30.698;104.050;2023-07-31T07:05:40;37.30;99.90
17859;DHT22;35426;30.698;104.050;2023-07-31T07:08:14;37.30;99.90
17859;DHT22;35426;30.698;104.050;2023-07-31T07:10:47;37.30;99.90
17859;DHT22;35426;30.698;104.050;2023-07-31T07:13:22;37.20;99.90
17859;DHT22;35426;30.698;104.050;2023-07-31T07:15:55;37.10;99.90
17859;DHT22;35426;30.698;104.050;2023-07-31T07:18:28;37.40;99.90
17859;DHT22;35426;30.698;104.050;2023-07-31T07:21:02;37.30;99.90
17859;DHT22;35426;30.698;104.050;2023-07-31T07:23:36;37.00;99.90
17859;DHT22;35426;30.698;104.050;2023-07-31T07:26:10;37.00;99.90
17859;DHT22;35426;30.698;104.050;2023-07-31T07:28:43;37.10;99.90
17859;DHT22;35426;30.698;104.050;2023-07-31T07:31:16;37.20;99.90
17859;DHT22;35426;30.698;104.050;2023-07-31T07:33:50;37.30;99.90
17859;DHT22;35426;30.698;104.050;2023-07-31T07:36:23;37.50;99.90
17859;DHT22;35426;30.698;104.050;2023-07-31T07:38:58;37.80;99.90
17859;DHT22;35426;30.698;104.050;2023-07-31T07:41:31;37.70;99.90
17859;DHT22;35426;30.698;104.050;2023-07-31T07:44:09;38.00;99.90
17859;DHT22;35426;30.698;104.050;2023-07-31T07:46:43;38.20;99.90
17859;DHT22;35426;30.698;104.050;2023-07-31T07:49:16;38.40;99.90
17859;DHT22;35426;30.698;104.050;2023-07-31T07:51:53;38.10;99.90
17859;DHT22;35426;30.698;104.050;2023-07-31T07:54:30;38.10;99.90
17859;DHT22;35426;30.698;104.050;2023-07-31T07:57:04;37.90;99.90
17859;DHT22;35426;30.698;104.050;2023-07-31T07:59:39;37.60;99.90
17859;DHT22;35426;30.698;104.050;2023-07-31T08:02:13;37.40;99.90
17859;DHT22;35426;30.698;104.050;2023-07-31T08:04:46;36.90;99.90
17859;DHT22;35426;30.698;104.050;2023-07-31T08:07:20;36.90;99.90
17859;DHT22;35426;30.698;104.050;2023-07-31T08:09:56;37.10;99.90
17859;DHT22;35426;30.698;104.050;2023-07-31T08:12:29;37.20;99.90
17859;DHT22;35426;30.698;104.050;2023-07-31T08:15:05;37.10;99.90
17859;DHT22;35426;30.698;104.050;2023-07-31T08:17:39;37.30;99.90
17859;DHT22;35426;30.698;104.050;2023-07-31T08:20:13;37.30;99.90
17859;DHT22;35426;30.698;104.050;2023-07-31T08:22:46;37.00;99.90
17859;DHT22;35426;30.698;104.050;2023-07-31T08:25:21;37.20;99.90
17859;DHT22;35426;30.698;104.050;2023-07-31T08:27:58;37.10;99.90
17859;DHT22;35426;30.698;104.050;2023-07-31T08:30:32;36.50;99.90
17859;DHT22;35426;30.698;104.050;2023-07-31T08:33:25;36.10;99.90
17859;DHT22;35426;30.698;104.050;2023-07-31T08:35:59;35.70;99.90
17859;DHT22;35426;30.698;104.050;2023-07-31T08:38:32;34.80;99.90
17859;DHT22;35426;30.698;104.050;2023-07-31T08:41:08;34.30;99.90
17859;DHT22;35426;30.698;104.050;2023-07-31T08:43:45;34.10;99.90
17859;DHT22;35426;30.698;104.050;2023-07-31T08:46:20;33.90;99.90
17859;DHT22;35426;30.698;104.050;2023-07-31T08:48:56;34.10;99.90
17859;DHT22;35426;30.698;104.050;2023-07-31T08:51:31;34.20;99.90
17859;DHT22;35426;30.698;104.050;2023-07-31T08:54:06;34.20;99.90
17859;DHT22;35426;30.698;104.050;2023-07-31T08:56:43;34.30;99.90
17859;DHT22;35426;30.698;104.050;2023-07-31T08:59:18;34.20;99.90
17859;DHT22;35426;30.698;104.050;2023-07-31T09:01:54;34.10;99.90
17859;DHT22;35426;30.698;104.050;2023-07-31T09:04:29;34.20;99.90
17859;DHT22;35426;30.698;104.050;2023-07-31T09:07:05;34.40;99.90
17859;DHT22;35426;30.698;104.050;2023-07-31T09:09:40;34.30;99.90
17859;DHT22;35426;30.698;104.050;2023-07-31T09:12:16;34.10;99.90
17859;DHT22;35426;30.698;104.050;2023-07-31T09:14:49;33.80;99.90
17859;DHT22;35426;30.698;104.050;2023-07-31T09:17:30;33.80;99.90
17859;DHT22;35426;30.698;104.050;2023-07-31T09:20:15;33.70;99.90
17859;DHT22;35426;30.698;104.050;2023-07-31T09:22:49;33.50;99.90
17859;DHT22;35426;30.698;104.050;2023-07-31T09:25:24;33.70;99.90
17859;DHT22;35426;30.698;104.050;2023-07-31T09:28:01;33.60;99.90
17859;DHT22;35426;30.698;104.050;2023-07-31T09:30:46;33.50;99.90
17859;DHT22;35426;30.698;104.050;2023-07-31T09:33:20;33.20;99.90
17859;DHT22;35426;30.698;104.050;2023-07-31T09:35:54;33.00;99.90
17859;DHT22;35426;30.698;104.050;2023-07-31T09:38:28;33.20;99.90
17859;DHT22;35426;30.698;104.050;2023-07-31T09:41:02;33.10;99.90
17859;DHT22;35426;30.698;104.050;2023-07-31T09:43:39;32.90;99.90
17859;DHT22;35426;30.698;104.050;2023-07-31T09:46:15;32.80;99.90
17859;DHT22;35426;30.698;104.050;2023-07-31T09:48:49;32.50;99.90
17859;DHT22;35426;30.698;104.050;2023-07-31T09:51:27;32.20;99.90
17859;DHT22;35426;30.698;104.050;2023-07-31T09:54:01;32.20;99.90
17859;DHT22;35426;30.698;104.050;2023-07-31T09:56:38;32.50;99.90
17859;DHT22;35426;30.698;104.050;2023-07-31T09:59:16;32.60;99.90
17859;DHT22;35426;30.698;104.050;2023-07-31T10:01:55;32.30;99.90
17859;DHT22;35426;30.698;104.050;2023-07-31T10:04:30;32.30;99.90
17859;DHT22;35426;30.698;104.050;2023-07-31T10:07:05;32.30;99.90
17859;DHT22;35426;30.698;104.050;2023-07-31T10:09:42;31.90;99.90
17859;DHT22;35426;30.698;104.050;2023-07-31T10:12:18;32.00;99.90
17859;DHT22;35426;30.698;104.050;2023-07-31T10:14:55;32.40;99.90
17859;DHT22;35426;30.698;104.050;2023-07-31T10:17:29;32.60;99.90
17859;DHT22;35426;30.698;104.050;2023-07-31T10:20:03;32.60;99.90
17859;DHT22;35426;30.698;104.050;2023-07-31T10:22:37;32.70;99.90
17859;DHT22;35426;30.698;104.050;2023-07-31T10:25:11;32.40;99.90
17859;DHT22;35426;30.698;104.050;2023-07-31T10:27:46;32.50;99.90
17859;DHT22;35426;30.698;104.050;2023-07-31T10:30:24;32.50;99.90
17859;DHT22;35426;30.698;104.050;2023-07-31T10:32:58;32.50;99.90
17859;DHT22;35426;30.698;104.050;2023-07-31T10:35:32;32.70;99.90
17859;DHT22;35426;30.698;104.050;2023-07-31T10:38:12;32.90;99.90
17859;DHT22;35426;30.698;104.050;2023-07-31T10:40:45;33.00;99.90
17859;DHT22;35426;30.698;104.050;2023-07-31T10:43:26;33.10;99.90
17859;DHT22;35426;30.698;104.050;2023-07-31T10:46:07;33.00;99.90
17859;DHT22;35426;30.698;104.050;2023-07-31T10:48:41;32.70;99.90
17859;DHT22;35426;30.698;104.050;2023-07-31T10:51:14;32.50;99.90
17859;DHT22;35426;30.698;104.050;2023-07-31T10:53:49;32.60;99.90
17859;DHT22;35426;30.698;104.050;2023-07-31T10:56:46;32.80;99.90
17859;DHT22;35426;30.698;104.050;2023-07-31T10:59:19;32.90;99.90
17859;DHT22;35426;30.698;104.050;2023-07-31T11:01:56;33.00;99.90
17859;DHT22;35426;30.698;104.050;2023-07-31T11:04:33;33.00;99.90
17859;DHT22;35426;30.698;104.050;2023-07-31T11:07:07;32.90;99.90
17859;DHT22;35426;30.698;104.050;2023-07-31T11:09:42;33.00;99.90
17859;DHT22;35426;30.698;104.050;2023-07-31T11:12:15;32.80;99.90
17859;DHT22;35426;30.698;104.050;2023-07-31T11:14:55;32.80;99.90
17859;DHT22;35426;30.698;104.050;2023-07-31T11:17:31;32.70;99.90
17859;DHT22;35426;30.698;104.050;2023-07-31T11:20:05;32.70;99.90
17859;DHT22;35426;30.698;104.050;2023-07-31T11:22:39;32.70;99.90
17859;DHT22;35426;30.698;104.050;2023-07-31T11:25:12;32.70;99.90
17859;DHT22;35426;30.698;104.050;2023-07-31T11:27:47;32.70;99.90
17859;DHT22;35426;30.698;104.050;2023-07-31T11:30:24;32.50;99.90
17859;DHT22;35426;30.698;104.050;2023-07-31T11:33:01;32.30;99.90
17859;DHT22;35426;30.698;104.050;2023-07-31T11:35:36;32.10;99.90
17859;DHT22;35426;30.698;104.050;2023-07-31T11:38:22;31.80;99.90
17859;DHT22;35426;30.698;104.050;2023-07-31T11:40:57;31.60;99.90
17859;DHT22;35426;30.698;104.050;2023-07-31T11:43:32;31.60;99.90
17859;DHT22;35426;30.698;104.050;2023-07-31T11:46:06;31.40;99.90
17859;DHT22;35426;30.698;104.050;2023-07-31T11:48:42;31.20;99.90
17859;DHT22;35426;30.698;104.050;2023-07-31T11:51:16;31.20;99.90
17859;DHT22;35426;30.698;104.050;2023-07-31T11:53:52;31.20;99.90
17859;DHT22;35426;30.698;104.050;2023-07-31T11:56:29;31.20;99.90
17859;DHT22;35426;30.698;104.050;2023-07-31T11:59:03;31.20;99.90
17859;DHT22;35426;30.698;104.050;2023-07-31T12:01:39;31.40;99.90
17859;DHT22;35426;30.698;104.050;2023-07-31T12:04:16;31.40;99.90
17859;DHT22;35426;30.698;104.050;2023-07-31T12:07:06;31.40;99.90
17859;DHT22;35426;30.698;104.050;2023-07-31T12:09:52;31.50;99.90
17859;DHT22;35426;30.698;104.050;2023-07-31T12:12:30;31.60;99.90
17859;DHT22;35426;30.698;104.050;2023-07-31T12:15:15;31.70;99.90
17859;DHT22;35426;30.698;104.050;2023-07-31T12:17:50;31.80;99.90
17859;DHT22;35426;30.698;104.050;2023-07-31T12:20:26;31.70;99.90
17859;DHT22;35426;30.698;104.050;2023-07-31T12:23:00;31.60;99.90
17859;DHT22;35426;30.698;104.050;2023-07-31T12:25:34;31.60;99.90
17859;DHT22;35426;30.698;104.050;2023-07-31T12:28:09;31.60;99.90
17859;DHT22;35426;30.698;104.050;2023-07-31T12:30:44;31.40;99.90
17859;DHT22;35426;30.698;104.050;2023-07-31T12:33:20;31.40;99.90
17859;DHT22;35426;30.698;104.050;2023-07-31T12:35:55;31.40;99.90
17859;DHT22;35426;30.698;104.050;2023-07-31T12:38:30;31.50;99.90
17859;DHT22;35426;30.698;104.050;2023-07-31T12:41:06;31.50;99.90
17859;DHT22;35426;30.698;104.050;2023-07-31T12:43:43;31.50;99.90
17859;DHT22;35426;30.698;104.050;2023-07-31T12:46:16;31.40;99.90
17859;DHT22;35426;30.698;104.050;2023-07-31T12:48:51;31.20;99.90
17859;DHT22;35426;30.698;104.050;2023-07-31T12:51:32;31.10;99.90
17859;DHT22;35426;30.698;104.050;2023-07-31T12:54:24;31.10;99.90
17859;DHT22;35426;30.698;104.050;2023-07-31T12:56:57;31.30;99.90
17859;DHT22;35426;30.698;104.050;2023-07-31T12:59:30;31.50;99.90
17859;DHT22;35426;30.698;104.050;2023-07-31T13:02:04;31.70;99.90
17859;DHT22;35426;30.698;104.050;2023-07-31T13:04:39;31.80;99.90
17859;DHT22;35426;30.698;104.050;2023-07-31T13:07:15;31.70;99.90
17859;DHT22;35426;30.698;104.050;2023-07-31T13:09:49;31.50;99.90
17859;DHT22;35426;30.698;104.050;2023-07-31T13:12:24;31.40;99.90
17859;DHT22;35426;30.698;104.050;2023-07-31T13:14:58;31.30;99.90
17859;DHT22;35426;30.698;104.050;2023-07-31T13:17:33;31.40;99.90
17859;DHT22;35426;30.698;104.050;2023-07-31T13:20:08;31.40;99.90
17859;DHT22;35426;30.698;104.050;2023-07-31T13:22:43;31.10;99.90
17859;DHT22;35426;30.698;104.050;2023-07-31T13:25:17;31.20;99.90
17859;DHT22;35426;30.698;104.050;2023-07-31T13:27:50;31.30;99.90
17859;DHT22;35426;30.698;104.050;2023-07-31T13:30:24;31.30;99.90
17859;DHT22;35426;30.698;104.050;2023-07-31T13:32:59;31.50;99.90
17859;DHT22;35426;30.698;104.050;2023-07-31T13:35:46;31.50;99.90
17859;DHT22;35426;30.698;104.050;2023-07-31T13:38:22;31.60;99.90
17859;DHT22;35426;30.698;104.050;2023-07-31T13:40:59;31.70;99.90
17859;DHT22;35426;30.698;104.050;2023-07-31T13:43:33;31.50;99.90
17859;DHT22;35426;30.698;104.050;2023-07-31T13:46:07;31.90;99.90
17859;DHT22;35426;30.698;104.050;2023-07-31T13:48:42;32.10;99.90
17859;DHT22;35426;30.698;104.050;2023-07-31T13:51:16;32.20;99.90
17859;DHT22;35426;30.698;104.050;2023-07-31T13:53:53;32.20;99.90
17859;DHT22;35426;30.698;104.050;2023-07-31T13:56:27;32.00;99.90
17859;DHT22;35426;30.698;104.050;2023-07-31T13:59:00;31.80;99.90
17859;DHT22;35426;30.698;104.050;2023-07-31T14:01:34;32.00;99.90
17859;DHT22;35426;30.698;104.050;2023-07-31T14:04:08;32.10;99.90
17859;DHT22;35426;30.698;104.050;2023-07-31T14:06:41;32.10;99.90
17859;DHT22;35426;30.698;104.050;2023-07-31T14:09:17;32.20;99.90
17859;DHT22;35426;30.698;104.050;2023-07-31T14:11:51;32.20;99.90
17859;DHT22;35426;30.698;104.050;2023-07-31T14:14:28;32.10;99.90
17859;DHT22;35426;30.698;104.050;2023-07-31T14:17:05;32.20;99.90
17859;DHT22;35426;30.698;104.050;2023-07-31T14:19:39;32.20;99.90
17859;DHT22;35426;30.698;104.050;2023-07-31T14:22:13;32.10;99.90
17859;DHT22;35426;30.698;104.050;2023-07-31T14:24:49;31.80;99.90
17859;DHT22;35426;30.698;104.050;2023-07-31T14:27:22;31.50;99.90
17859;DHT22;35426;30.698;104.050;2023-07-31T14:29:57;31.40;99.90
17859;DHT22;35426;30.698;104.050;2023-07-31T14:32:30;31.40;99.90
17859;DHT22;35426;30.698;104.050;2023-07-31T14:35:04;31.70;99.90
17859;DHT22;35426;30.698;104.050;2023-07-31T14:37:41;31.70;99.90
17859;DHT22;35426;30.698;104.050;2023-07-31T14:40:18;32.00;99.90
17859;DHT22;35426;30.698;104.050;2023-07-31T14:42:52;31.90;99.90
17859;DHT22;35426;30.698;104.050;2023-07-31T14:45:25;31.70;99.90
17859;DHT22;35426;30.698;104.050;2023-07-31T14:47:58;31.50;99.90
17859;DHT22;35426;30.698;104.050;2023-07-31T14:50:32;31.60;99.90
17859;DHT22;35426;30.698;104.050;2023-07-31T14:53:05;31.60;99.90
17859;DHT22;35426;30.698;104.050;2023-07-31T14:55:41;31.60;99.90
17859;DHT22;35426;30.698;104.050;2023-07-31T14:58:15;31.50;99.90
17859;DHT22;35426;30.698;104.050;2023-07-31T15:00:49;31.30;99.90
17859;DHT22;35426;30.698;104.050;2023-07-31T15:03:26;31.10;99.90
17859;DHT22;35426;30.698;104.050;2023-07-31T15:06:33;31.00;99.90
17859;DHT22;35426;30.698;104.050;2023-07-31T15:09:07;30.80;99.90
17859;DHT22;35426;30.698;104.050;2023-07-31T15:11:44;30.80;99.90
17859;DHT22;35426;30.698;104.050;2023-07-31T15:14:19;30.80;99.90
17859;DHT22;35426;30.698;104.050;2023-07-31T15:16:52;30.80;99.90
17859;DHT22;35426;30.698;104.050;2023-07-31T15:19:25;31.00;99.90
17859;DHT22;35426;30.698;104.050;2023-07-31T15:22:00;31.10;99.90
17859;DHT22;35426;30.698;104.050;2023-07-31T15:24:50;31.10;99.90
17859;DHT22;35426;30.698;104.050;2023-07-31T15:27:27;31.10;99.90
17859;DHT22;35426;30.698;104.050;2023-07-31T15:30:02;31.10;99.90
17859;DHT22;35426;30.698;104.050;2023-07-31T15:32:39;31.20;99.90
17859;DHT22;35426;30.698;104.050;2023-07-31T15:35:13;31.10;99.90
17859;DHT22;35426;30.698;104.050;2023-07-31T15:37:52;30.90;99.90
17859;DHT22;35426;30.698;104.050;2023-07-31T15:40:25;31.00;99.90
17859;DHT22;35426;30.698;104.050;2023-07-31T15:43:00;31.00;99.90
17859;DHT22;35426;30.698;104.050;2023-07-31T15:45:35;31.10;99.90
17859;DHT22;35426;30.698;104.050;2023-07-31T15:48:08;31.30;99.90
17859;DHT22;35426;30.698;104.050;2023-07-31T15:50:42;31.40;99.90
17859;DHT22;35426;30.698;104.050;2023-07-31T15:53:17;31.40;99.90